createdAt,value
2022-09-22T00:02:18.738Z,69.76
2022-09-22T00:05:03.754Z,69.89
2022-09-22T00:07:49.448Z,69.81
2022-09-22T00:10:33.161Z,69.82
2022-09-22T00:13:16.916Z,69.74
2022-09-22T00:16:01.595Z,70.78
2022-09-22T00:18:45.763Z,70.10
2022-09-22T00:21:31.200Z,70.76
2022-09-22T00:24:17.909Z,71.25
2022-09-22T00:27:01.841Z,70.81
2022-09-22T00:29:45.711Z,70.86
2022-09-22T00:32:29.460Z,70.91
2022-09-22T00:35:13.431Z,71.88
2022-09-22T00:37:57.215Z,70.72
2022-09-22T00:40:42.504Z,71.54
2022-09-22T00:43:28.250Z,70.70
2022-09-22T00:46:17.504Z,71.58
2022-09-22T00:49:05.805Z,72.10
2022-09-22T00:51:50.058Z,72.21
2022-09-22T00:54:34.923Z,71.88
2022-09-22T00:57:23.812Z,71.77
2022-09-22T01:00:10.847Z,71.89
2022-09-22T01:02:59.249Z,71.67
2022-09-22T01:05:45.047Z,72.60
2022-09-22T01:08:31.502Z,72.42
2022-09-22T01:11:16.504Z,72.82
2022-09-22T01:14:08.547Z,71.92
2022-09-22T01:17:03.192Z,73.51
2022-09-22T01:20:34.980Z,73.39
2022-09-22T01:23:42.734Z,73.30
2022-09-22T01:27:07.510Z,74.33
2022-09-22T01:30:20.728Z,73.95
2022-09-22T01:33:17.948Z,73.54
2022-09-22T01:36:13.410Z,73.74
2022-09-22T01:39:06.885Z,73.65
2022-09-22T01:41:58.499Z,73.52
2022-09-22T01:44:49.290Z,73.39
2022-09-22T01:47:40.766Z,73.80
2022-09-22T01:50:29.085Z,74.49
2022-09-22T01:53:15.508Z,74.65
2022-09-22T01:56:05.867Z,74.68
2022-09-22T01:58:54.021Z,74.09
2022-09-22T02:01:42.499Z,74.20
2022-09-22T02:04:34.473Z,73.50
2022-09-22T02:07:25.517Z,73.68
2022-09-22T02:10:13.629Z,73.16
2022-09-22T02:12:57.388Z,73.47
2022-09-22T02:15:58.734Z,72.87
2022-09-22T02:18:46.658Z,73.73
2022-09-22T02:21:32.242Z,73.27
2022-09-22T02:24:33.194Z,72.44
2022-09-22T02:27:25.640Z,72.97
2022-09-22T02:30:12.744Z,73.28
2022-09-22T02:32:58.865Z,72.61
2022-09-22T02:35:48.705Z,72.20
2022-09-22T02:38:39.944Z,72.41
2022-09-22T02:41:30.988Z,72.93
2022-09-22T02:44:21.343Z,72.40
2022-09-22T02:47:11.107Z,72.09
2022-09-22T02:49:56.966Z,71.62
2022-09-22T02:52:42.049Z,72.24
2022-09-22T02:55:27.494Z,73.21
2022-09-22T02:58:11.560Z,72.69
2022-09-22T03:00:55.539Z,72.89
2022-09-22T03:03:39.584Z,73.22
2022-09-22T03:06:23.600Z,73.15
2022-09-22T03:09:07.681Z,73.15
2022-09-22T03:11:53.484Z,73.02
2022-09-22T03:14:37.524Z,72.73
2022-09-22T03:17:21.544Z,72.23
2022-09-22T03:20:06.920Z,72.76
2022-09-22T03:22:51.072Z,72.15
2022-09-22T03:25:35.432Z,72.43
2022-09-22T03:28:21.473Z,72.77
2022-09-22T03:31:05.499Z,72.24
2022-09-22T03:33:52.754Z,72.65
2022-09-22T03:36:37.048Z,72.57
2022-09-22T03:39:21.460Z,72.62
2022-09-22T03:42:05.788Z,73.24
2022-09-22T03:44:51.177Z,73.70
2022-09-22T03:47:35.086Z,72.86
2022-09-22T03:50:19.229Z,73.37
2022-09-22T03:53:03.216Z,73.15
2022-09-22T03:55:47.320Z,73.49
2022-09-22T03:58:31.242Z,73.56
2022-09-22T04:01:17.134Z,74.09
2022-09-22T04:04:01.285Z,74.37
2022-09-22T04:06:45.418Z,74.06
2022-09-22T04:09:29.354Z,73.95
2022-09-22T04:12:13.285Z,73.96
2022-09-22T04:14:57.264Z,73.54
2022-09-22T04:17:42.684Z,73.71
2022-09-22T04:20:27.375Z,73.57
2022-09-22T04:23:11.542Z,74.33
2022-09-22T04:25:55.556Z,74.22
2022-09-22T04:28:39.495Z,73.79
2022-09-22T04:31:24.191Z,73.97
2022-09-22T04:34:09.583Z,73.36
2022-09-22T04:36:53.654Z,72.19
2022-09-22T04:39:37.978Z,73.78
2022-09-22T04:42:21.946Z,73.56
2022-09-22T04:45:07.132Z,72.58
2022-09-22T04:47:53.148Z,71.96
2022-09-22T04:50:38.634Z,70.77
2022-09-22T04:53:22.959Z,70.62
2022-09-22T04:56:07.450Z,70.51
2022-09-22T04:58:51.429Z,70.29
2022-09-22T05:01:35.714Z,70.07
2022-09-22T05:04:19.606Z,69.83
2022-09-22T05:07:04.896Z,70.45
2022-09-22T05:09:48.733Z,70.47
2022-09-22T05:12:32.652Z,69.67
2022-09-22T05:15:16.574Z,69.03
2022-09-22T05:18:00.449Z,69.31
2022-09-22T05:20:44.777Z,70.96
2022-09-22T05:23:30.377Z,70.38
2022-09-22T05:26:14.227Z,69.97
2022-09-22T05:28:58.557Z,70.51
2022-09-22T05:31:42.384Z,70.85
2022-09-22T05:34:26.202Z,68.24
2022-09-22T05:37:10.034Z,69.29
2022-09-22T05:39:55.178Z,67.53
2022-09-22T05:42:42.246Z,69.82
2022-09-22T05:45:26.079Z,68.85
2022-09-22T05:48:09.959Z,68.60
2022-09-22T05:50:53.733Z,68.72
2022-09-22T05:53:37.494Z,69.28
2022-09-22T05:56:22.603Z,68.28
2022-09-22T05:59:06.335Z,67.63
2022-09-22T06:01:50.202Z,67.62
2022-09-22T06:04:34.051Z,67.74
2022-09-22T06:07:20.301Z,69.62
2022-09-22T06:10:04.031Z,68.62
2022-09-22T06:12:49.457Z,69.31
2022-09-22T06:15:34.006Z,67.49
2022-09-22T06:18:24.173Z,68.27
2022-09-22T06:21:08.468Z,67.63
2022-09-22T06:23:52.458Z,66.84
2022-09-22T06:26:36.206Z,67.50
2022-09-22T06:29:21.360Z,68.41
2022-09-22T06:32:05.267Z,68.30
2022-09-22T06:34:49.107Z,67.73
2022-09-22T06:37:33.302Z,68.24
2022-09-22T06:40:17.690Z,67.73
2022-09-22T06:43:07.673Z,67.20
2022-09-22T06:45:53.564Z,67.75
2022-09-22T06:48:37.902Z,65.48
2022-09-22T06:51:21.669Z,66.16
2022-09-22T06:54:07.000Z,65.48
2022-09-22T06:56:50.804Z,65.23
2022-09-22T06:59:37.944Z,63.93
2022-09-22T07:02:23.365Z,63.24
2022-09-22T07:05:08.242Z,64.30
2022-09-22T07:07:51.886Z,63.19
2022-09-22T07:10:38.030Z,63.65
2022-09-22T07:13:22.403Z,64.05
2022-09-22T07:16:09.126Z,66.27
2022-09-22T07:18:56.366Z,66.64
2022-09-22T07:21:40.544Z,65.47
2022-09-22T07:24:24.418Z,63.67
2022-09-22T07:27:08.173Z,64.17
2022-09-22T07:29:52.322Z,65.68
2022-09-22T07:32:36.105Z,66.54
2022-09-22T07:35:21.306Z,66.73
2022-09-22T07:38:05.219Z,65.99
2022-09-22T07:40:55.588Z,65.75
2022-09-22T07:43:39.945Z,66.39
2022-09-22T07:46:23.983Z,65.88
2022-09-22T07:49:08.324Z,64.66
2022-09-22T07:51:55.196Z,62.68
2022-09-22T07:54:39.928Z,62.47
2022-09-22T07:57:24.079Z,62.13
2022-09-22T08:00:09.426Z,60.69
2022-09-22T08:02:57.955Z,60.06
2022-09-22T08:05:41.929Z,60.00
2022-09-22T08:08:27.426Z,60.82
2022-09-22T08:11:15.170Z,59.94
2022-09-22T08:14:00.983Z,58.08
2022-09-22T08:16:46.144Z,56.34
2022-09-22T08:19:34.039Z,56.70
2022-09-22T08:22:18.891Z,56.56
2022-09-22T08:25:04.976Z,56.63
2022-09-22T08:27:49.004Z,56.71
2022-09-22T08:30:32.951Z,55.95
2022-09-22T08:33:17.272Z,54.65
2022-09-22T08:36:03.939Z,54.82
2022-09-22T08:38:49.755Z,54.88
2022-09-22T08:41:47.066Z,54.37
2022-09-22T08:44:37.549Z,53.86
2022-09-22T08:47:42.341Z,52.95
2022-09-22T08:50:51.394Z,51.77
2022-09-22T08:53:41.570Z,50.69
2022-09-22T08:56:29.336Z,50.81
2022-09-22T08:59:20.981Z,50.54
2022-09-22T09:02:38.210Z,50.56
2022-09-22T09:05:54.650Z,51.18
2022-09-22T09:09:20.110Z,50.93
2022-09-22T09:12:19.445Z,50.06
2022-09-22T09:15:29.057Z,50.28
2022-09-22T09:18:16.812Z,48.18
2022-09-22T09:21:04.875Z,47.31
2022-09-22T09:27:07.815Z,46.22
2022-09-22T09:30:01.408Z,46.49
2022-09-22T09:32:51.994Z,46.06
2022-09-22T09:35:44.369Z,46.23
2022-09-22T09:38:31.106Z,45.59
2022-09-22T09:41:19.175Z,46.01
2022-09-22T09:44:05.747Z,44.88
2022-09-22T09:46:58.296Z,45.38
2022-09-22T09:49:44.086Z,45.01
2022-09-22T09:52:29.466Z,44.74
2022-09-22T09:55:27.415Z,45.55
2022-09-22T09:58:35.333Z,45.28
2022-09-22T10:01:18.544Z,45.07
2022-09-22T10:04:02.896Z,44.27
2022-09-22T10:06:48.844Z,44.32
2022-09-22T10:09:32.942Z,44.08
2022-09-22T10:12:29.764Z,43.66
2022-09-22T10:15:25.904Z,44.50
2022-09-22T10:18:33.894Z,44.78
2022-09-22T10:21:19.655Z,45.31
2022-09-22T10:24:25.621Z,43.83
2022-09-22T10:27:24.278Z,43.77
2022-09-22T10:30:22.737Z,44.79
2022-09-22T10:33:15.703Z,44.34
2022-09-22T10:36:10.981Z,43.57
2022-09-22T10:38:59.654Z,44.53
2022-09-22T10:41:48.334Z,45.17
2022-09-22T10:44:39.330Z,44.23
2022-09-22T10:47:32.467Z,44.69
2022-09-22T10:50:41.301Z,43.58
2022-09-22T10:53:40.011Z,42.67
2022-09-22T10:56:34.263Z,42.60
2022-09-22T10:59:37.566Z,42.88
2022-09-22T11:03:15.084Z,43.79
2022-09-22T11:06:27.652Z,44.14
2022-09-22T11:09:34.037Z,43.10
2022-09-22T11:12:30.991Z,43.49
2022-09-22T11:15:40.046Z,43.45
2022-09-22T11:18:43.387Z,43.29
2022-09-22T11:21:39.752Z,42.92
2022-09-22T11:24:38.292Z,43.67
2022-09-22T11:27:36.491Z,43.39
2022-09-22T11:30:23.062Z,43.38
2022-09-22T11:33:31.954Z,41.68
2022-09-22T11:36:26.509Z,40.73
2022-09-22T11:39:22.039Z,42.02
2022-09-22T11:42:19.630Z,42.46
2022-09-22T11:45:09.723Z,41.40
2022-09-22T11:48:06.489Z,41.44
2022-09-22T11:51:04.885Z,41.41
2022-09-22T11:54:04.513Z,42.10
2022-09-22T11:56:51.509Z,42.42
2022-09-22T11:59:41.822Z,43.40
2022-09-22T12:02:30.660Z,40.42
2022-09-22T12:05:19.999Z,40.73
2022-09-22T12:08:08.456Z,41.77
2022-09-22T12:10:52.875Z,41.11
2022-09-22T12:13:42.117Z,40.85
2022-09-22T12:16:31.883Z,39.95
2022-09-22T12:19:25.319Z,40.76
2022-09-22T12:22:17.932Z,40.51
2022-09-22T12:25:03.463Z,40.79
2022-09-22T12:27:47.398Z,40.51
2022-09-22T12:30:31.235Z,39.83
2022-09-22T12:33:17.226Z,39.93
2022-09-22T12:36:02.315Z,40.09
2022-09-22T12:38:46.915Z,39.13
2022-09-22T12:41:32.275Z,39.88
2022-09-22T12:44:23.142Z,38.98
2022-09-22T12:47:09.259Z,39.36
2022-09-22T12:49:57.494Z,40.38
2022-09-22T12:53:04.335Z,40.14
2022-09-22T12:55:48.715Z,39.77
2022-09-22T12:58:44.372Z,39.66
2022-09-22T13:01:37.266Z,39.54
2022-09-22T13:04:21.120Z,38.80
2022-09-22T13:07:06.127Z,38.52
2022-09-22T13:09:49.824Z,38.68
2022-09-22T13:12:33.586Z,37.26
2022-09-22T13:15:21.111Z,36.96
2022-09-22T13:18:05.089Z,38.07
2022-09-22T13:20:49.678Z,37.64
2022-09-22T13:23:33.435Z,37.69
2022-09-22T13:26:19.923Z,39.09
2022-09-22T13:29:12.134Z,38.83
2022-09-22T13:31:58.008Z,38.45
2022-09-22T13:34:41.678Z,38.65
2022-09-22T13:37:26.142Z,39.76
2022-09-22T13:40:12.397Z,39.80
2022-09-22T13:43:00.281Z,39.48
2022-09-22T13:45:46.984Z,39.77
2022-09-22T13:48:35.640Z,40.30
2022-09-22T13:51:19.760Z,39.09
2022-09-22T13:54:04.990Z,38.53
2022-09-22T13:56:49.307Z,37.88
2022-09-22T13:59:39.844Z,36.71
2022-09-22T14:02:30.778Z,37.16
2022-09-22T14:05:23.050Z,38.10
2022-09-22T14:08:12.745Z,38.56
2022-09-22T14:10:58.972Z,39.23
2022-09-22T14:13:45.203Z,39.84
2022-09-22T14:16:34.239Z,40.58
2022-09-22T14:19:21.199Z,40.92
2022-09-22T14:22:15.507Z,40.48
2022-09-22T14:25:01.606Z,40.31
2022-09-22T14:27:52.081Z,39.59
2022-09-22T14:30:42.023Z,39.58
2022-09-22T14:33:29.082Z,40.19
2022-09-22T14:36:18.716Z,40.10
2022-09-22T14:39:10.033Z,40.81
2022-09-22T14:41:59.250Z,39.78
2022-09-22T14:44:45.861Z,40.23
2022-09-22T14:47:39.216Z,40.91
2022-09-22T14:50:39.500Z,40.49
2022-09-22T14:53:27.613Z,40.51
2022-09-22T14:56:20.296Z,40.81
2022-09-22T14:59:28.198Z,40.31
2022-09-22T15:02:33.553Z,40.14
2022-09-22T15:05:29.572Z,39.45
2022-09-22T15:08:18.848Z,39.97
2022-09-22T15:11:03.498Z,39.93
2022-09-22T15:13:52.846Z,39.84
2022-09-22T15:16:39.169Z,39.41
2022-09-22T15:19:23.060Z,39.95
2022-09-22T15:22:07.366Z,39.88
2022-09-22T15:24:51.317Z,39.76
2022-09-22T15:27:35.219Z,40.25
2022-09-22T15:30:21.988Z,41.11
2022-09-22T15:33:06.107Z,40.90
2022-09-22T15:35:53.880Z,41.04
2022-09-22T15:38:39.225Z,41.68
2022-09-22T15:41:22.999Z,42.07
2022-09-22T15:44:07.210Z,42.37
2022-09-22T15:46:54.930Z,42.19
2022-09-22T15:49:38.595Z,42.94
2022-09-22T15:52:22.382Z,42.80
2022-09-22T15:55:06.494Z,43.32
2022-09-22T15:57:54.882Z,43.63
2022-09-22T16:00:39.019Z,43.80
2022-09-22T16:03:24.786Z,43.88
2022-09-22T16:06:11.772Z,44.25
2022-09-22T16:08:56.477Z,45.26
2022-09-22T16:11:40.138Z,45.39
2022-09-22T16:14:24.100Z,45.95
2022-09-22T16:17:08.395Z,46.73
2022-09-22T16:19:53.793Z,47.00
2022-09-22T16:22:37.769Z,47.75
2022-09-22T16:25:21.937Z,48.05
2022-09-22T16:28:07.700Z,48.36
2022-09-22T16:30:51.743Z,48.05
2022-09-22T16:33:35.709Z,49.16
2022-09-22T16:36:21.612Z,49.25
2022-09-22T16:39:05.606Z,49.19
2022-09-22T16:41:49.500Z,49.70
2022-09-22T16:44:33.199Z,50.31
2022-09-22T16:47:18.491Z,50.74
2022-09-22T16:50:02.391Z,50.31
2022-09-22T16:52:48.345Z,50.41
2022-09-22T16:55:35.579Z,51.63
2022-09-22T16:58:20.948Z,52.36
2022-09-22T17:01:05.132Z,52.47
2022-09-22T17:03:50.722Z,52.86
2022-09-22T17:06:36.186Z,53.77
2022-09-22T17:09:21.782Z,53.23
2022-09-22T17:12:10.727Z,52.69
2022-09-22T17:14:54.407Z,53.06
2022-09-22T17:17:39.663Z,53.78
2022-09-22T17:20:24.088Z,53.95
2022-09-22T17:23:08.032Z,53.67
2022-09-22T17:25:53.160Z,54.15
2022-09-22T17:28:37.041Z,53.98
2022-09-22T17:31:21.334Z,53.89
2022-09-22T17:34:05.226Z,53.95
2022-09-22T17:36:49.050Z,53.43
2022-09-22T17:39:32.890Z,53.85
2022-09-22T17:42:18.438Z,53.75
2022-09-22T17:45:02.966Z,54.06
2022-09-22T17:48:04.675Z,53.77
2022-09-22T17:51:08.139Z,54.65
2022-09-22T17:54:08.405Z,54.63
2022-09-22T17:56:52.224Z,54.96
2022-09-22T17:59:38.331Z,54.99
2022-09-22T18:02:22.223Z,55.30
2022-09-22T18:05:07.016Z,56.35
2022-09-22T18:07:53.789Z,56.45
2022-09-22T18:10:37.689Z,57.61
2022-09-22T18:13:21.430Z,56.56
2022-09-22T18:16:21.187Z,56.08
2022-09-22T18:19:05.795Z,56.71
2022-09-22T18:21:49.738Z,57.40
2022-09-22T18:24:33.466Z,57.87
2022-09-22T18:27:19.712Z,57.77
2022-09-22T18:30:05.207Z,57.71
2022-09-22T18:32:50.463Z,57.46
2022-09-22T18:35:34.583Z,57.15
2022-09-22T18:38:18.410Z,56.81
2022-09-22T18:41:02.383Z,57.12
2022-09-22T18:43:46.243Z,57.30
2022-09-22T18:46:30.997Z,56.45
2022-09-22T18:49:17.258Z,56.53
2022-09-22T18:52:02.840Z,56.39
2022-09-22T18:54:46.952Z,57.20
2022-09-22T18:57:30.898Z,57.11
2022-09-22T19:00:16.241Z,56.49
2022-09-22T19:03:00.640Z,56.92
2022-09-22T19:05:46.163Z,56.01
2022-09-22T19:08:30.050Z,55.77
2022-09-22T19:11:17.552Z,56.00
2022-09-22T19:14:02.223Z,55.63
2022-09-22T19:16:46.781Z,55.67
2022-09-22T19:19:30.750Z,55.43
2022-09-22T19:22:15.996Z,55.05
2022-09-22T19:25:04.304Z,55.44
2022-09-22T19:27:48.835Z,55.77
2022-09-22T19:30:32.704Z,55.92
2022-09-22T19:33:16.723Z,55.54
2022-09-22T19:36:00.759Z,55.90
2022-09-22T19:38:45.907Z,55.97
2022-09-22T19:41:29.669Z,56.58
2022-09-22T19:44:13.929Z,57.11
2022-09-22T19:46:57.842Z,56.96
2022-09-22T19:49:42.296Z,57.26
2022-09-22T19:52:26.198Z,57.50
2022-09-22T19:55:12.583Z,58.22
2022-09-22T19:57:56.368Z,58.44
2022-09-22T20:00:40.970Z,58.30
2022-09-22T20:03:24.690Z,58.44
2022-09-22T20:06:08.557Z,58.68
2022-09-22T20:08:55.835Z,58.26
2022-09-22T20:11:43.955Z,57.98
2022-09-22T20:14:29.896Z,57.76
2022-09-22T20:17:13.944Z,57.50
2022-09-22T20:19:57.731Z,57.29
2022-09-22T20:22:42.080Z,57.87
2022-09-22T20:25:28.672Z,58.62
2022-09-22T20:28:14.155Z,58.16
2022-09-22T20:30:57.970Z,58.04
2022-09-22T20:33:41.936Z,57.62
2022-09-22T20:36:25.670Z,57.81
2022-09-22T20:39:09.748Z,57.59
2022-09-22T20:41:53.472Z,57.54
2022-09-22T20:44:39.031Z,57.19
2022-09-22T20:47:25.918Z,57.49
2022-09-22T20:50:11.981Z,58.07
2022-09-22T20:52:56.233Z,57.52
2022-09-22T20:55:39.916Z,57.82
2022-09-22T20:58:23.834Z,57.63
2022-09-22T21:01:10.565Z,57.71
2022-09-22T21:03:54.388Z,58.30
2022-09-22T21:06:38.158Z,58.02
2022-09-22T21:09:38.977Z,59.16
2022-09-22T21:12:25.281Z,59.62
2022-09-22T21:15:12.841Z,59.26
2022-09-22T21:17:58.596Z,59.36
2022-09-22T21:20:42.597Z,59.67
2022-09-22T21:23:26.587Z,59.73
2022-09-22T21:26:12.577Z,58.94
2022-09-22T21:28:57.019Z,58.78
2022-09-22T21:31:41.219Z,58.94
2022-09-22T21:34:26.792Z,59.37
2022-09-22T21:37:11.083Z,59.08
2022-09-22T21:39:54.898Z,58.80
2022-09-22T21:42:38.788Z,59.20
2022-09-22T21:45:22.576Z,58.91
2022-09-22T21:48:06.323Z,59.36
2022-09-22T21:50:57.705Z,58.56
2022-09-22T21:53:44.126Z,58.90
2022-09-22T21:56:30.125Z,58.64
2022-09-22T21:59:14.749Z,58.95
2022-09-22T22:01:58.707Z,59.63
2022-09-22T22:04:43.954Z,60.03
2022-09-22T22:07:29.089Z,59.93
2022-09-22T22:10:12.802Z,59.81
2022-09-22T22:12:56.691Z,59.74
2022-09-22T22:15:41.038Z,59.55
2022-09-22T22:18:24.775Z,59.66
2022-09-22T22:21:10.802Z,59.71
2022-09-22T22:24:14.126Z,59.87
2022-09-22T22:27:01.500Z,59.64
2022-09-22T22:29:46.721Z,60.19
2022-09-22T22:32:30.414Z,59.80
2022-09-22T22:35:14.294Z,59.56
2022-09-22T22:37:57.996Z,59.74
2022-09-22T22:40:43.274Z,60.21
2022-09-22T22:43:27.247Z,60.34
2022-09-22T22:46:16.677Z,60.15
2022-09-22T22:49:00.925Z,60.29
2022-09-22T22:51:44.826Z,60.29
2022-09-22T22:54:28.674Z,60.23
2022-09-22T22:57:13.800Z,60.29
2022-09-22T22:59:58.218Z,59.76
2022-09-22T23:02:41.926Z,60.04
2022-09-22T23:05:25.681Z,60.51
2022-09-22T23:08:09.870Z,60.61
2022-09-22T23:11:02.508Z,60.82
2022-09-22T23:13:51.022Z,60.75
2022-09-22T23:16:37.799Z,61.12
2022-09-22T23:19:21.564Z,61.41
2022-09-22T23:22:05.769Z,62.01
2022-09-22T23:24:49.593Z,61.96
2022-09-22T23:27:33.350Z,62.56
2022-09-22T23:30:18.810Z,61.21
2022-09-22T23:33:02.730Z,61.88
2022-09-22T23:35:54.617Z,61.65
2022-09-22T23:38:38.460Z,61.17
2022-09-22T23:41:22.617Z,61.72
2022-09-22T23:44:07.247Z,61.09
2022-09-22T23:46:52.431Z,60.92
2022-09-22T23:49:36.067Z,61.51
2022-09-22T23:52:19.968Z,61.56
2022-09-22T23:55:03.778Z,61.55
2022-09-22T23:57:47.911Z,61.86
